Time;durP1;ratioP1;P1;durP2;ratioP2;P2;SDS_P1;SDS_P2;PMS_P1;PMS_P2;Temp;Humidity;BMP_temperature;BMP_pressure;BME280_temperature;BME280_humidity;BME280_pressure;Samples;Min_cycle;Max_cycle;Signal;HPM_P1;HPM_P2
2022/11/11 00:05:08;;;;;;;;;97.00;71.25;;;;;;;;6490591;39;8895;-65
2022/11/11 00:11:37;;;;;;;;;87.75;69.25;;;;;;;;6491328;39;8910;-64
2022/11/11 00:31:25;;;;;;;;;95.25;74.25;;;;;;;;6490658;39;8850;-64
2022/11/11 00:37:52;;;;;;;;;92.75;71.00;;;;;;;;6490727;31;8950;-64
2022/11/11 00:44:14;;;;;;;;;89.25;70.00;;;;;;;;6489347;31;9011;-64
2022/11/11 00:57:19;;;;;;;;;101.25;84.00;;;;;;;;6489732;39;8944;-65
2022/11/11 01:03:43;;;;;;;;;98.00;84.50;;;;;;;;6489412;46;8899;-63
2022/11/11 01:10:07;;;;;;;;;97.75;84.25;;;;;;;;6489812;31;8984;-64
2022/11/11 01:16:29;;;;;;;;;105.75;93.00;;;;;;;;6489457;39;9019;-63
2022/11/11 01:22:52;;;;;;;;;98.25;77.75;;;;;;;;6490120;46;8875;-64
2022/11/11 01:29:13;;;;;;;;;100.00;80.50;;;;;;;;6490400;39;8903;-65
2022/11/11 01:35:39;;;;;;;;;96.00;80.75;;;;;;;;6488868;39;8942;-64
2022/11/11 01:42:02;;;;;;;;;98.00;82.75;;;;;;;;6488503;39;9554;-65
2022/11/11 01:55:24;;;;;;;;;93.75;72.00;;;;;;;;6488437;31;9065;-65
2022/11/11 02:01:49;;;;;;;;;101.75;88.25;;;;;;;;6487998;39;9947;-64
2022/11/11 02:08:33;;;;;;;;;98.75;80.75;;;;;;;;6487567;31;8957;-64
2022/11/11 02:14:58;;;;;;;;;100.25;85.50;;;;;;;;6488324;39;8879;-63
2022/11/11 02:21:43;;;;;;;;;91.75;76.00;;;;;;;;6487315;31;9021;-65
2022/11/11 02:28:10;;;;;;;;;100.25;84.75;;;;;;;;6486640;46;8911;-64
2022/11/11 02:34:34;;;;;;;;;102.50;90.00;;;;;;;;6515062;36;8903;-64
2022/11/11 02:47:38;;;;;;;;;101.00;90.75;;;;;;;;6486524;39;9507;-64
2022/11/11 02:54:01;;;;;;;;;94.75;73.75;;;;;;;;6486363;39;9145;-64
2022/11/11 03:00:24;;;;;;;;;99.25;86.25;;;;;;;;6487249;31;8986;-64
2022/11/11 03:06:47;;;;;;;;;100.50;84.50;;;;;;;;6485876;47;8894;-64
2022/11/11 03:13:11;;;;;;;;;100.50;85.00;;;;;;;;6485986;39;8946;-64
2022/11/11 03:19:35;;;;;;;;;96.25;79.75;;;;;;;;6485609;39;8919;-63
2022/11/11 03:26:09;;;;;;;;;94.50;77.00;;;;;;;;6485945;39;8878;-64
2022/11/11 03:32:36;;;;;;;;;96.75;78.00;;;;;;;;6486148;39;8931;-62
2022/11/11 03:38:57;;;;;;;;;92.50;75.75;;;;;;;;6485234;39;9045;-62
2022/11/11 03:45:28;;;;;;;;;95.50;75.50;;;;;;;;6484904;31;8902;-64
2022/11/11 03:51:49;;;;;;;;;89.25;74.00;;;;;;;;6485050;39;9042;-62
2022/11/11 03:58:11;;;;;;;;;92.00;70.75;;;;;;;;6486088;46;8874;-64
2022/11/11 04:11:15;;;;;;;;;79.50;63.75;;;;;;;;6486685;46;8947;-65
2022/11/11 04:17:39;;;;;;;;;79.75;62.75;;;;;;;;6487768;46;8963;-63
2022/11/11 04:25:47;;;;;;;;;72.50;56.25;;;;;;;;6486982;39;8882;-64
2022/11/11 04:30:45;;;;;;;;;73.00;57.25;;;;;;;;6488245;31;9030;-62
2022/11/11 04:37:06;;;;;;;;;69.00;55.25;;;;;;;;6487295;39;9073;-64
2022/11/11 04:43:27;;;;;;;;;60.00;50.75;;;;;;;;6486696;39;8926;-64
2022/11/11 04:49:48;;;;;;;;;59.75;46.75;;;;;;;;6487428;46;8934;-64
2022/11/11 05:09:32;;;;;;;;;54.75;42.25;;;;;;;;6491150;31;8878;-64
2022/11/11 05:22:38;;;;;;;;;63.50;50.25;;;;;;;;6490605;31;8931;-64
